createdAt,value
2023-01-15T00:01:39.084Z,55.37
2023-01-15T00:08:04.607Z,55.35
2023-01-15T00:14:31.552Z,55.14
2023-01-15T00:20:36.620Z,54.95
2023-01-15T00:26:51.433Z,54.45
2023-01-15T00:33:00.700Z,54.54
2023-01-15T00:45:09.958Z,54.47
2023-01-15T00:51:42.674Z,53.97
2023-01-15T00:57:54.770Z,53.79
2023-01-15T01:03:48.811Z,53.41
2023-01-15T01:09:56.451Z,53.67
2023-01-15T01:16:04.596Z,53.38
2023-01-15T01:22:31.087Z,53.35
2023-01-15T01:52:53.794Z,51.99
2023-01-15T01:59:03.793Z,52.07
2023-01-15T02:07:25.231Z,51.61
2023-01-15T02:54:03.659Z,50.56
2023-01-15T03:46:55.111Z,49.39
2023-01-15T03:53:14.724Z,49.33
2023-01-15T03:59:57.033Z,49.45
2023-01-15T04:41:23.337Z,49.77
2023-01-15T04:48:24.715Z,49.18
2023-01-15T04:59:01.699Z,49.50
2023-01-15T05:04:01.379Z,49.55
2023-01-15T06:26:54.179Z,48.08
2023-01-15T06:32:29.714Z,48.31
2023-01-15T06:38:54.638Z,47.92
2023-01-15T06:52:14.021Z,47.69
2023-01-15T07:05:33.388Z,47.73
2023-01-15T07:12:01.218Z,47.51
2023-01-15T08:47:31.005Z,45.84
2023-01-15T08:53:34.986Z,45.16
2023-01-15T08:59:32.501Z,45.65
2023-01-15T09:19:20.079Z,44.47
2023-01-15T09:25:05.225Z,44.95
2023-01-15T09:31:16.224Z,44.05
2023-01-15T09:37:31.040Z,43.74
2023-01-15T09:44:15.672Z,44.27
2023-01-15T09:51:13.608Z,44.41
2023-01-15T10:03:45.416Z,43.12
2023-01-15T10:09:52.428Z,42.83
2023-01-15T10:16:21.287Z,43.27
2023-01-15T10:22:37.807Z,43.68
2023-01-15T10:28:58.156Z,42.45
2023-01-15T10:35:05.249Z,42.63
2023-01-15T10:41:22.607Z,42.57
2023-01-15T10:47:32.752Z,42.57
2023-01-15T10:56:37.880Z,42.23
2023-01-15T11:02:18.054Z,42.30
2023-01-15T11:09:07.298Z,42.60
2023-01-15T11:22:05.912Z,41.51
2023-01-15T11:28:10.196Z,42.27
2023-01-15T11:34:36.945Z,42.27
2023-01-15T11:41:13.878Z,42.22
2023-01-15T11:47:49.314Z,41.44
2023-01-15T11:54:18.221Z,41.53
2023-01-15T12:07:03.159Z,42.05
2023-01-15T12:14:00.247Z,42.43
2023-01-15T12:19:53.955Z,42.75
2023-01-15T12:26:12.198Z,43.51
2023-01-15T12:31:52.064Z,44.32
2023-01-15T12:38:06.846Z,45.28
2023-01-15T12:43:46.633Z,45.91
2023-01-15T12:49:40.045Z,47.12
2023-01-15T12:56:01.807Z,48.25
2023-01-15T13:02:24.250Z,49.42
2023-01-15T13:09:21.068Z,50.00
2023-01-15T13:15:35.271Z,50.10
2023-01-15T13:21:03.349Z,50.34
2023-01-15T13:27:51.231Z,50.90
2023-01-15T13:34:27.748Z,51.56
2023-01-15T13:40:05.585Z,51.69
2023-01-15T13:46:13.343Z,52.60
2023-01-15T13:56:58.025Z,52.48
2023-01-15T14:03:29.730Z,52.72
2023-01-15T14:09:27.555Z,52.29
2023-01-15T14:16:13.544Z,52.10
2023-01-15T14:22:17.359Z,52.93
2023-01-15T14:28:06.514Z,52.30
2023-01-15T14:34:28.535Z,52.12
2023-01-15T14:40:15.487Z,52.06
2023-01-15T14:46:26.109Z,51.85
2023-01-15T14:56:37.903Z,51.60
2023-01-15T15:02:32.941Z,51.51
2023-01-15T15:07:44.337Z,51.66
2023-01-15T15:14:23.791Z,51.74
2023-01-15T15:20:32.616Z,51.96
2023-01-15T15:26:41.543Z,52.23
2023-01-15T15:32:43.039Z,52.19
2023-01-15T15:39:07.736Z,52.34
2023-01-15T15:45:24.126Z,52.22
2023-01-15T15:51:14.768Z,52.51
2023-01-15T15:58:25.948Z,52.53
2023-01-15T16:03:34.779Z,52.62
2023-01-15T16:09:05.441Z,52.93
2023-01-15T16:14:38.312Z,53.26
2023-01-15T16:20:18.161Z,53.31
2023-01-15T16:25:38.155Z,53.37
2023-01-15T16:31:39.693Z,53.35
2023-01-15T16:37:12.563Z,53.36
2023-01-15T16:43:29.954Z,53.56
2023-01-15T16:55:03.508Z,54.02
2023-01-15T17:00:56.844Z,54.20
2023-01-15T17:06:57.188Z,54.39
2023-01-15T17:13:22.030Z,54.81
2023-01-15T17:18:37.948Z,55.68
2023-01-15T17:25:20.339Z,56.47
2023-01-15T17:39:02.723Z,56.81
2023-01-15T18:00:56.382Z,60.84
2023-01-15T18:20:05.085Z,52.50
2023-01-15T18:26:27.378Z,53.73
2023-01-15T18:33:51.792Z,56.20
2023-01-15T18:47:52.845Z,60.45
2023-01-15T19:02:04.588Z,55.13
2023-01-15T19:08:16.511Z,55.21
2023-01-15T19:14:42.037Z,55.91
2023-01-15T19:35:38.056Z,61.53
2023-01-15T19:41:26.547Z,68.86
2023-01-15T19:48:09.914Z,58.73
2023-01-15T20:02:45.431Z,55.35
2023-01-15T20:08:34.187Z,58.85
2023-01-15T20:14:52.669Z,59.79
2023-01-15T20:35:19.484Z,69.20
2023-01-15T20:41:53.598Z,54.26
2023-01-15T20:56:46.664Z,57.84
2023-01-15T21:02:57.630Z,59.07
2023-01-15T21:09:05.774Z,59.90
2023-01-15T21:15:33.382Z,60.47
2023-01-15T21:21:41.647Z,70.77
2023-01-15T21:27:35.223Z,60.33
2023-01-15T21:33:32.643Z,52.08
2023-01-15T21:39:57.042Z,52.95
2023-01-15T21:45:44.179Z,55.71
2023-01-15T21:55:45.271Z,58.37
2023-01-15T22:00:57.325Z,58.68
2023-01-15T22:06:52.919Z,59.96
2023-01-15T22:12:56.957Z,60.70
2023-01-15T22:19:21.136Z,70.77
2023-01-15T22:24:52.943Z,59.70
2023-01-15T22:31:07.589Z,51.98
2023-01-15T22:37:04.503Z,52.80
2023-01-15T22:42:59.595Z,54.34
2023-01-15T22:48:58.040Z,55.78
2023-01-15T22:55:16.268Z,57.24
2023-01-15T23:01:16.510Z,58.31
2023-01-15T23:07:02.446Z,59.57
2023-01-15T23:13:25.540Z,60.87
2023-01-15T23:19:29.742Z,70.80
2023-01-15T23:25:23.966Z,60.29
2023-01-15T23:31:30.361Z,51.23
2023-01-15T23:37:37.609Z,51.90
2023-01-15T23:43:50.030Z,53.26
2023-01-15T23:49:17.925Z,54.54
2023-01-15T23:55:24.991Z,56.38
